< < Back
Terminal Aerodrome Forecast


Current Version              Previous Versions:   1  2  3  4  5  6  7  8  9  

Terminal Aerodrome Forecast

853
FTUS44 KMOB 172300 RRA
TAFMOB
TAF
KMOB 172344Z 1800/1824 00000KT P6SM BKN040 OVC200
     FM180600 06011KT 4SM SHRA OVC010
     FM181300 05015G22KT 4SM BR OVC008
     FM181600 03016G22KT P6SM BKN050=



Latest METAR

997
SAUS80 KWBC 182000
MTRMOB
METAR KMOB 181956Z 01012G21KT 10SM BKN013 OVC019 16/14 A3005 RMK AO2
SLP175 T01610139


USA.gov is the U.S. government's official web portal to all federal, state and local government web resources and services.